KDUA/DUA METAR and TAF weather

Enter ICAO airport designator
Station Type Date Time Source
KDUA METAR 2019/08/21 22:16 UTC NOAA

KDUA 212216Z AUTO 15007KT 10SM CLR 36/20 A2993 RMK AO2


Station Type Date Time Source
KDUA Decoded METAR 2019/08/21 22:16 UTC NOAA

Station name not available
Aug 21, 2019 - 06:16 PM EDT / 2019.08.21 2216 UTC
Wind: from the SSE (150 degrees) at 8 MPH (7 KT):0
Visibility: 10 mile(s):0
Sky conditions: clear
Temperature: 96 F (36 C)
Heat index: 100.2 F (37.9 C):1
Dew Point: 68 F (20 C)
Relative Humidity: 39%
Pressure (altimeter): 29.93 in. Hg (1013 hPa)
ob: KDUA 212216Z AUTO 15007KT 10SM CLR 36/20 A2993 RMK AO2
cycle: 22

Station Type Date Time Source
KDUA TAF UTC NOAA

Error!

Example: see airport list